createdAt,value
2023-11-12T00:01:59.949Z,96061.61
2023-11-12T00:05:27.294Z,96058.86
2023-11-12T00:09:09.544Z,96057.66
2023-11-12T00:12:21.266Z,96055.72
2023-11-12T00:15:57.508Z,96053.97
2023-11-12T00:19:43.525Z,96057.89
2023-11-12T00:23:10.355Z,96061.73
2023-11-12T00:27:04.535Z,96061.36
2023-11-12T00:30:34.696Z,96064.98
2023-11-12T00:33:57.104Z,96065.84
2023-11-12T00:37:26.655Z,96068.72
2023-11-12T00:40:40.471Z,96063.38
2023-11-12T00:44:26.282Z,96067.90
2023-11-12T00:48:14.865Z,96065.54
2023-11-12T00:51:54.035Z,96063.21
2023-11-12T00:55:12.991Z,96060.42
2023-11-12T00:58:21.921Z,96060.39
2023-11-12T01:01:44.782Z,96061.08
2023-11-12T01:04:58.876Z,96055.98
2023-11-12T01:08:12.373Z,96060.89
2023-11-12T01:11:54.653Z,96058.73
2023-11-12T01:15:44.339Z,96064.45
2023-11-12T01:19:18.606Z,96066.75
2023-11-12T01:22:50.461Z,96069.15
2023-11-12T01:26:33.871Z,96065.51
2023-11-12T01:30:12.092Z,96070.20
2023-11-12T01:34:00.352Z,96062.14
2023-11-12T01:37:49.681Z,96067.82
2023-11-12T01:41:27.660Z,96068.56
2023-11-12T01:44:58.225Z,96067.83
2023-11-12T01:48:29.976Z,96065.90
2023-11-12T01:51:48.656Z,96065.55
2023-11-12T01:55:17.267Z,96066.17
2023-11-12T01:58:52.491Z,96071.13
2023-11-12T02:02:34.562Z,96071.63
2023-11-12T02:06:17.887Z,96069.58
2023-11-12T02:09:32.588Z,96072.89
2023-11-12T02:13:10.913Z,96072.88
2023-11-12T02:16:51.964Z,96070.45
2023-11-12T02:20:37.158Z,96073.02
2023-11-12T02:24:17.992Z,96078.22
2023-11-12T02:27:45.962Z,96077.61
2023-11-12T02:30:49.813Z,96077.16
2023-11-12T02:33:53.368Z,96082.11
2023-11-12T02:36:58.386Z,96080.21
2023-11-12T02:39:59.888Z,96077.58
2023-11-12T02:43:19.285Z,96081.33
2023-11-12T02:46:42.456Z,96085.30
2023-11-12T02:50:18.969Z,96088.41
2023-11-12T02:53:58.593Z,96085.57
2023-11-12T02:57:17.933Z,96096.14
2023-11-12T03:00:41.760Z,96099.27
2023-11-12T03:04:23.604Z,96101.19
2023-11-12T03:07:08.216Z,96103.11
2023-11-12T03:10:02.307Z,96106.14
2023-11-12T03:12:39.616Z,96109.88
2023-11-12T03:15:12.696Z,96115.70
2023-11-12T03:17:47.289Z,96114.73
2023-11-12T03:20:19.006Z,96115.27
2023-11-12T03:23:16.098Z,96117.87
2023-11-12T03:25:52.260Z,96118.55
2023-11-12T03:28:31.698Z,96118.30
2023-11-12T03:31:25.283Z,96117.08
2023-11-12T03:33:54.570Z,96119.30
2023-11-12T03:36:36.002Z,96119.56
2023-11-12T03:39:25.024Z,96124.52
2023-11-12T03:42:51.278Z,96128.30
2023-11-12T03:45:46.683Z,96127.79
2023-11-12T03:49:12.472Z,96138.34
2023-11-12T03:52:41.311Z,96133.98
2023-11-12T03:56:40.083Z,96143.77
2023-11-12T04:00:24.916Z,96149.47
2023-11-12T04:04:16.013Z,96150.20
2023-11-12T04:16:20.134Z,96156.55
2023-11-12T04:20:11.799Z,96168.15
2023-11-12T04:23:33.972Z,96175.70
2023-11-12T04:27:35.837Z,96178.16
2023-11-12T04:30:32.684Z,96179.20
2023-11-12T04:33:55.269Z,96184.59
2023-11-12T04:37:12.669Z,96191.38
2023-11-12T04:40:52.630Z,96195.29
2023-11-12T04:44:40.571Z,96192.83
2023-11-12T04:48:13.485Z,96206.87
2023-11-12T04:51:52.527Z,96204.02
2023-11-12T04:55:33.587Z,96200.80
2023-11-12T04:59:16.367Z,96206.84
2023-11-12T05:02:55.231Z,96210.63
2023-11-12T05:06:50.993Z,96210.08
2023-11-12T05:10:45.799Z,96215.15
2023-11-12T05:14:08.726Z,96222.32
2023-11-12T05:18:01.113Z,96226.00
2023-11-12T05:21:33.016Z,96230.75
2023-11-12T05:25:19.257Z,96231.69
2023-11-12T05:29:24.132Z,96236.05
2023-11-12T05:33:18.566Z,96246.32
2023-11-12T05:36:56.890Z,96253.48
2023-11-12T05:40:37.679Z,96262.02
2023-11-12T05:43:35.743Z,96270.36
2023-11-12T05:46:24.847Z,96277.31
2023-11-12T05:49:11.912Z,96275.90
2023-11-12T05:51:44.030Z,96285.33
2023-11-12T05:54:14.463Z,96290.38
2023-11-12T05:56:51.411Z,96298.01
2023-11-12T05:59:33.759Z,96298.84
2023-11-12T06:02:02.647Z,96308.86
2023-11-12T06:04:41.683Z,96320.54
2023-11-12T06:07:19.338Z,96312.17
2023-11-12T06:10:12.833Z,96323.08
2023-11-12T06:12:54.007Z,96327.75
2023-11-12T06:15:29.494Z,96336.83
2023-11-12T06:17:58.327Z,96339.69
2023-11-12T06:20:33.362Z,96349.69
2023-11-12T06:23:14.319Z,96351.13
2023-11-12T06:25:43.355Z,96362.70
2023-11-12T06:28:31.479Z,96369.40
2023-11-12T06:31:11.552Z,96364.87
2023-11-12T06:34:02.079Z,96370.48
2023-11-12T06:36:52.529Z,96374.73
2023-11-12T06:39:32.715Z,96380.86
2023-11-12T06:42:26.208Z,96386.27
2023-11-12T06:45:41.310Z,96389.97
2023-11-12T06:48:31.418Z,96392.20
2023-11-12T06:51:05.953Z,96395.45
2023-11-12T06:53:34.623Z,96399.64
2023-11-12T06:56:06.171Z,96404.13
2023-11-12T06:58:38.109Z,96406.61
2023-11-12T07:01:24.434Z,96409.77
2023-11-12T07:04:08.190Z,96415.26
2023-11-12T07:07:01.844Z,96422.02
2023-11-12T07:09:53.639Z,96422.63
2023-11-12T07:12:25.164Z,96427.70
2023-11-12T07:14:53.580Z,96429.27
2023-11-12T07:17:29.691Z,96435.52
2023-11-12T07:20:03.157Z,96440.52
2023-11-12T07:22:48.144Z,96441.30
2023-11-12T07:25:26.098Z,96450.77
2023-11-12T07:27:55.286Z,96451.66
2023-11-12T07:30:39.714Z,96451.95
2023-11-12T07:33:14.476Z,96460.34
2023-11-12T07:35:59.846Z,96466.13
2023-11-12T07:38:34.665Z,96462.91
2023-11-12T07:41:08.620Z,96468.49
2023-11-12T07:43:48.808Z,96469.86
2023-11-12T07:46:20.158Z,96473.84
2023-11-12T07:49:19.331Z,96474.09
2023-11-12T07:52:18.404Z,96485.25
2023-11-12T07:55:03.731Z,96490.45
2023-11-12T07:57:49.516Z,96492.65
2023-11-12T08:00:50.715Z,96495.83
2023-11-12T08:04:05.378Z,96498.20
2023-11-12T08:07:13.550Z,96492.95
2023-11-12T08:10:05.371Z,96507.25
2023-11-12T08:13:17.671Z,96510.95
2023-11-12T08:16:39.742Z,96518.91
2023-11-12T08:20:06.663Z,96521.77
2023-11-12T08:23:12.839Z,96540.05
2023-11-12T08:26:40.557Z,96540.47
2023-11-12T08:30:00.511Z,96545.41
2023-11-12T08:32:46.851Z,96554.23
2023-11-12T08:35:49.610Z,96551.27
2023-11-12T08:38:32.978Z,96557.34
2023-11-12T08:41:23.819Z,96568.18
2023-11-12T08:44:42.045Z,96576.76
2023-11-12T08:48:15.185Z,96582.86
2023-11-12T08:51:02.998Z,96587.83
2023-11-12T08:53:37.657Z,96597.91
2023-11-12T08:56:39.296Z,96596.05
2023-11-12T09:04:12.172Z,96612.90
2023-11-12T09:08:04.734Z,96617.50
2023-11-12T09:11:31.311Z,96627.48
2023-11-12T09:16:05.217Z,96625.48
2023-11-12T09:18:33.649Z,96629.13
2023-11-12T09:21:52.499Z,96639.67
2023-11-12T09:25:55.477Z,96641.39
2023-11-12T09:29:06.485Z,96650.55
2023-11-12T09:32:48.167Z,96658.33
2023-11-12T09:37:03.936Z,96665.54
2023-11-12T09:40:19.607Z,96667.16
2023-11-12T09:43:14.320Z,96677.83
2023-11-12T09:46:26.291Z,96679.34
2023-11-12T09:49:41.889Z,96688.76
2023-11-12T09:53:47.494Z,96690.54
2023-11-12T09:56:59.696Z,96688.12
2023-11-12T09:59:47.043Z,96701.17
2023-11-12T10:02:50.524Z,96708.59
2023-11-12T10:05:36.185Z,96722.01
2023-11-12T10:09:03.480Z,96721.02
2023-11-12T10:13:19.874Z,96723.66
2023-11-12T10:17:33.180Z,96734.13
2023-11-12T10:26:16.955Z,96744.45
2023-11-12T10:40:09.564Z,96758.14
2023-11-12T10:43:52.875Z,96762.21
2023-11-12T10:50:58.455Z,96758.47
2023-11-12T10:54:25.989Z,96764.55
2023-11-12T10:57:01.358Z,96771.61
2023-11-12T10:59:45.796Z,96773.19
2023-11-12T11:03:07.972Z,96773.59
2023-11-12T11:05:46.547Z,96776.61
2023-11-12T11:08:26.898Z,96782.34
2023-11-12T11:29:13.973Z,96828.63
2023-11-12T11:36:32.203Z,96820.60
2023-11-12T11:41:29.833Z,96823.67
2023-11-12T11:44:39.415Z,96831.46
2023-11-12T11:47:40.734Z,96834.73
2023-11-12T11:50:48.165Z,96838.59
2023-11-12T11:53:34.100Z,96834.88
2023-11-12T11:56:20.677Z,96833.38
2023-11-12T11:59:13.812Z,96842.65
2023-11-12T12:03:00.398Z,96846.00
2023-11-12T12:06:40.744Z,96851.70
2023-11-12T12:09:51.451Z,96846.65
2023-11-12T12:13:30.948Z,96844.44
2023-11-12T12:17:05.945Z,96858.25
2023-11-12T12:19:41.733Z,96861.16
2023-11-12T12:22:31.131Z,96862.18
2023-11-12T12:25:20.091Z,96861.91
2023-11-12T12:28:32.413Z,96874.23
2023-11-12T12:31:35.732Z,96872.60
2023-11-12T12:34:58.407Z,96877.02
2023-11-12T12:38:58.044Z,96889.46
2023-11-12T12:42:16.837Z,96896.39
2023-11-12T12:45:15.752Z,96895.30
2023-11-12T12:48:54.966Z,96892.02
2023-11-12T12:52:41.473Z,96902.96
2023-11-12T12:55:41.889Z,96915.09
2023-11-12T12:58:23.914Z,96922.36
2023-11-12T13:01:39.488Z,96934.60
2023-11-12T13:05:16.961Z,96938.38
2023-11-12T13:08:33.861Z,96935.71
2023-11-12T13:11:56.300Z,96949.05
2023-11-12T13:15:40.330Z,96942.13
2023-11-12T13:18:38.869Z,96956.52
2023-11-12T13:21:51.325Z,96955.77
2023-11-12T13:25:06.808Z,96959.98
2023-11-12T13:28:18.457Z,96975.19
2023-11-12T13:31:28.365Z,96969.35
2023-11-12T13:34:28.072Z,96981.78
2023-11-12T13:38:01.961Z,96988.63
2023-11-12T13:41:25.710Z,96997.52
2023-11-12T13:49:33.415Z,96990.25
2023-11-12T13:53:22.147Z,96990.88
2023-11-12T13:56:43.083Z,96994.50
2023-11-12T13:59:45.169Z,96998.27
2023-11-12T14:03:15.244Z,97003.36
2023-11-12T14:07:05.828Z,97011.71
2023-11-12T14:10:46.746Z,97007.38
2023-11-12T14:14:34.909Z,97020.92
2023-11-12T14:17:52.437Z,97021.15
2023-11-12T14:21:10.767Z,97023.52
2023-11-12T14:24:18.611Z,97031.80
2023-11-12T14:27:08.949Z,97037.48
2023-11-12T14:30:57.463Z,97033.72
2023-11-12T14:34:16.486Z,97045.52
2023-11-12T14:37:22.991Z,97050.05
2023-11-12T14:40:47.330Z,97058.95
2023-11-12T14:43:45.948Z,97063.36
2023-11-12T14:46:36.601Z,97072.76
2023-11-12T14:49:30.641Z,97073.52
2023-11-12T14:52:29.687Z,97074.67
2023-11-12T14:55:57.748Z,97078.70
2023-11-12T14:58:51.984Z,97086.23
2023-11-12T15:02:03.958Z,97094.70
2023-11-12T15:05:29.976Z,97101.66
2023-11-12T15:08:20.207Z,97110.63
2023-11-12T15:11:35.808Z,97115.86
2023-11-12T15:14:33.795Z,97130.41
2023-11-12T15:17:14.633Z,97133.61
2023-11-12T15:20:00.088Z,97138.49
2023-11-12T15:22:47.683Z,97141.64
2023-11-12T15:25:47.395Z,97147.63
2023-11-12T15:29:02.726Z,97150.26
2023-11-12T15:32:34.302Z,97156.52
2023-11-12T15:41:16.546Z,97158.88
2023-11-12T15:44:52.868Z,97168.22
2023-11-12T15:52:17.986Z,97182.02
2023-11-12T16:00:22.003Z,97182.30
2023-11-12T16:04:10.805Z,97180.45
2023-11-12T16:07:49.890Z,97198.79
2023-11-12T16:11:04.493Z,97200.55
2023-11-12T16:13:56.629Z,97205.77
2023-11-12T16:17:50.782Z,97211.98
2023-11-12T16:20:54.393Z,97218.13
2023-11-12T16:24:13.953Z,97222.98
2023-11-12T16:31:28.999Z,97236.08
2023-11-12T16:35:05.836Z,97246.54
2023-11-12T16:37:49.742Z,97251.01
2023-11-12T16:41:11.611Z,97251.36
2023-11-12T16:44:09.702Z,97257.06
2023-11-12T16:48:17.698Z,97255.58
2023-11-12T16:51:55.191Z,97269.69
2023-11-12T16:59:07.096Z,97282.77
2023-11-12T17:02:15.545Z,97283.95
2023-11-12T17:05:20.854Z,97296.58
2023-11-12T17:08:34.841Z,97296.69
2023-11-12T17:11:32.896Z,97315.60
2023-11-12T17:14:18.405Z,97314.96
2023-11-12T17:16:56.207Z,97319.15
2023-11-12T17:20:38.133Z,97318.00
2023-11-12T17:23:59.714Z,97331.52
2023-11-12T17:28:28.232Z,97341.39
2023-11-12T17:31:20.620Z,97345.52
2023-11-12T17:35:16.774Z,97357.67
2023-11-12T17:52:24.618Z,97378.96
2023-11-12T17:55:31.962Z,97382.46
2023-11-12T17:59:14.129Z,97385.38
2023-11-12T18:06:53.088Z,97387.96
2023-11-12T18:10:06.187Z,97394.41
2023-11-12T18:12:50.987Z,97394.06
2023-11-12T18:15:38.638Z,97394.67
2023-11-12T18:22:12.825Z,97406.73
2023-11-12T18:24:57.756Z,97412.17
2023-11-12T18:27:55.499Z,97413.02
2023-11-12T18:30:50.632Z,97417.59
2023-11-12T18:33:52.334Z,97428.06
2023-11-12T18:36:35.502Z,97435.02
2023-11-12T18:39:37.845Z,97438.36
2023-11-12T18:42:26.971Z,97446.95
2023-11-12T18:45:04.966Z,97456.16
2023-11-12T18:48:22.447Z,97455.09
2023-11-12T18:51:28.342Z,97466.31
2023-11-12T18:54:33.559Z,97469.52
2023-11-12T19:02:13.363Z,97474.47
2023-11-12T19:04:51.717Z,97484.67
2023-11-12T19:07:50.169Z,97482.38
2023-11-12T19:11:18.502Z,97484.49
2023-11-12T19:14:42.858Z,97483.52
2023-11-12T19:17:54.289Z,97491.48
2023-11-12T19:21:07.850Z,97494.08
2023-11-12T19:24:01.708Z,97496.51
2023-11-12T19:27:26.343Z,97499.88
2023-11-12T19:30:31.749Z,97507.23
2023-11-12T19:33:08.692Z,97504.77
2023-11-12T19:36:37.966Z,97503.16
2023-11-12T19:39:55.682Z,97507.35
2023-11-12T19:43:13.074Z,97510.05
2023-11-12T19:46:10.642Z,97512.64
2023-11-12T19:49:25.481Z,97509.40
2023-11-12T19:52:30.094Z,97513.66
2023-11-12T19:55:42.346Z,97516.08
2023-11-12T19:59:17.768Z,97513.77
2023-11-12T20:02:40.104Z,97516.29
2023-11-12T20:09:02.499Z,97521.14
2023-11-12T20:12:33.113Z,97522.89
2023-11-12T20:15:41.467Z,97523.27
2023-11-12T20:19:12.153Z,97522.59
2023-11-12T20:23:05.865Z,97517.98
2023-11-12T20:26:32.774Z,97521.42
2023-11-12T20:30:15.011Z,97520.55
2023-11-12T20:33:44.002Z,97519.95
2023-11-12T20:36:39.840Z,97520.61
2023-11-12T20:39:34.075Z,97522.17
2023-11-12T20:42:29.515Z,97525.27
2023-11-12T20:45:18.546Z,97525.39
2023-11-12T20:48:18.051Z,97524.30
2023-11-12T20:51:11.393Z,97526.06
2023-11-12T20:53:56.663Z,97532.06
2023-11-12T20:56:38.475Z,97534.80
2023-11-12T20:59:22.047Z,97530.55
2023-11-12T21:01:51.033Z,97531.08
2023-11-12T21:04:29.534Z,97530.68
2023-11-12T21:07:14.709Z,97532.20
2023-11-12T21:10:41.519Z,97536.31
2023-11-12T21:13:20.988Z,97535.16
2023-11-12T21:15:58.530Z,97540.31
2023-11-12T21:18:44.087Z,97547.34
2023-11-12T21:21:42.526Z,97547.94
2023-11-12T21:24:14.511Z,97542.75
2023-11-12T21:27:14.237Z,97547.98
2023-11-12T21:29:58.316Z,97551.05
2023-11-12T21:32:48.122Z,97556.10
2023-11-12T21:35:26.187Z,97557.99
2023-11-12T21:38:04.527Z,97558.90
2023-11-12T21:41:00.709Z,97566.11
2023-11-12T21:43:29.754Z,97566.32
2023-11-12T21:46:08.457Z,97569.30
2023-11-12T21:48:39.009Z,97574.44
2023-11-12T21:51:37.908Z,97575.10
2023-11-12T21:54:35.698Z,97579.40
2023-11-12T21:57:16.373Z,97581.55
2023-11-12T22:00:12.968Z,97583.70
2023-11-12T22:03:02.828Z,97588.11
2023-11-12T22:05:47.428Z,97590.61
2023-11-12T22:08:16.320Z,97594.48
2023-11-12T22:10:51.107Z,97597.48
2023-11-12T22:13:27.557Z,97600.33
2023-11-12T22:16:00.445Z,97600.02
2023-11-12T22:18:31.727Z,97598.12
2023-11-12T22:21:35.006Z,97595.88
2023-11-12T22:24:19.729Z,97592.43
2023-11-12T22:27:25.559Z,97595.25
2023-11-12T22:30:08.315Z,97595.23
2023-11-12T22:32:48.342Z,97596.50
2023-11-12T22:35:20.114Z,97598.98
2023-11-12T22:37:58.824Z,97597.62
2023-11-12T22:41:08.113Z,97594.00
2023-11-12T22:44:21.840Z,97598.19
2023-11-12T22:48:01.447Z,97594.38
2023-11-12T22:50:48.173Z,97599.48
2023-11-12T22:53:31.353Z,97601.23
2023-11-12T22:56:42.509Z,97600.05
2023-11-12T22:59:49.059Z,97603.35
2023-11-12T23:02:40.231Z,97604.27
2023-11-12T23:06:50.132Z,97601.15
2023-11-12T23:10:21.360Z,97606.25
2023-11-12T23:13:43.713Z,97612.93
2023-11-12T23:16:47.677Z,97615.26
2023-11-12T23:20:00.709Z,97611.79
2023-11-12T23:23:39.088Z,97610.98
2023-11-12T23:26:53.663Z,97610.20
2023-11-12T23:29:50.805Z,97614.59
2023-11-12T23:32:34.930Z,97618.70
2023-11-12T23:35:39.387Z,97615.20
2023-11-12T23:38:36.473Z,97619.17
2023-11-12T23:41:08.107Z,97615.67
2023-11-12T23:44:47.976Z,97622.67
2023-11-12T23:47:36.905Z,97623.19
2023-11-12T23:50:50.251Z,97631.23
2023-11-12T23:53:49.178Z,97632.27
2023-11-12T23:56:55.212Z,97629.67
2023-11-12T23:59:29.231Z,97633.38
